Time;durP1;ratioP1;P1;durP2;ratioP2;P2;SDS_P1;SDS_P2;PMS_P1;PMS_P2;Temp;Humidity;BMP_temperature;BMP_pressure;BME280_temperature;BME280_humidity;BME280_pressure;Samples;Min_cycle;Max_cycle;Signal;HPM_P1;HPM_P2
2024/04/18 00:00:31;;;;;;;4.83;4.30;;;7.30;42.00;;;;;;11120743;26;20437;-73
2024/04/18 00:05:36;;;;;;;5.90;5.20;;;7.30;42.00;;;;;;11157612;26;20258;-73
2024/04/18 00:10:45;;;;;;;6.80;4.23;;;7.30;42.00;;;;;;11155206;26;20740;-73
2024/04/18 00:15:50;;;;;;;4.97;4.50;;;7.30;42.40;;;;;;11164513;26;20305;-73
2024/04/18 00:20:55;;;;;;;4.83;4.43;;;7.30;42.00;;;;;;11160885;26;20754;-73
2024/04/18 00:26:03;;;;;;;4.90;4.50;;;7.20;42.00;;;;;;11121570;26;20255;-73
2024/04/18 00:31:07;;;;;;;4.83;4.43;;;7.10;42.70;;;;;;11149891;26;20286;-73
2024/04/18 00:36:12;;;;;;;5.20;4.73;;;7.10;42.40;;;;;;11149105;26;20750;-73
2024/04/18 00:41:21;;;;;;;4.77;4.37;;;7.10;42.50;;;;;;11143886;26;21044;-73
2024/04/18 00:46:27;;;;;;;5.80;5.30;;;7.10;43.10;;;;;;11151744;26;20302;-73
2024/04/18 00:51:32;;;;;;;4.30;4.00;;;7.20;42.50;;;;;;11142925;26;20268;-73
2024/04/18 00:56:41;;;;;;;5.03;4.63;;;7.20;42.70;;;;;;11144447;26;20259;-73
2024/04/18 01:01:48;;;;;;;5.13;4.67;;;7.20;43.10;;;;;;11155677;26;20261;-73
2024/04/18 01:06:53;;;;;;;4.30;4.00;;;7.20;42.70;;;;;;11146368;26;20260;-73
2024/04/18 01:12:01;;;;;;;4.80;4.40;;;7.20;42.70;;;;;;11153389;26;20310;-73
2024/04/18 01:17:07;;;;;;;4.60;4.30;;;7.20;43.20;;;;;;11146271;26;20914;-73
2024/04/18 01:22:12;;;;;;;4.73;3.77;;;7.30;43.00;;;;;;11145439;26;20364;-73
2024/04/18 01:27:19;;;;;;;4.73;4.43;;;7.40;43.00;;;;;;11148120;26;20259;-73
2024/04/18 01:32:25;;;;;;;5.20;4.77;;;7.50;43.20;;;;;;11152171;26;21039;-72
2024/04/18 01:37:30;;;;;;;6.13;5.63;;;7.60;42.50;;;;;;11151564;26;20256;-73
2024/04/18 01:42:38;;;;;;;6.13;5.63;;;7.60;42.40;;;;;;11142952;26;20269;-73
2024/04/18 01:47:43;;;;;;;6.97;6.37;;;7.60;42.60;;;;;;11144554;26;21319;-73
2024/04/18 01:52:48;;;;;;;6.20;5.73;;;7.70;42.40;;;;;;11148509;26;20258;-73
2024/04/18 01:57:55;;;;;;;7.20;6.60;;;7.60;42.30;;;;;;11155903;26;20305;-73
2024/04/18 02:03:00;;;;;;;5.80;5.40;;;7.60;42.70;;;;;;11149153;26;20629;-73
2024/04/18 02:08:06;;;;;;;6.50;5.90;;;7.60;42.50;;;;;;11121051;26;20378;-73
2024/04/18 02:13:13;;;;;;;6.80;6.20;;;7.70;42.70;;;;;;11149306;26;20266;-72
2024/04/18 02:18:18;;;;;;;6.40;5.80;;;7.70;43.00;;;;;;11149490;26;20263;-73
2024/04/18 02:23:24;;;;;;;6.30;5.50;;;7.80;42.70;;;;;;11147338;26;21097;-73
2024/04/18 02:28:32;;;;;;;6.00;5.40;;;7.80;42.60;;;;;;11162020;26;20691;-73
2024/04/18 02:33:37;;;;;;;6.07;5.57;;;7.80;43.00;;;;;;11144980;26;21083;-73
2024/04/18 02:38:42;;;;;;;5.87;5.37;;;7.90;42.60;;;;;;11142373;26;20261;-73
2024/04/18 02:43:50;;;;;;;5.23;4.83;;;7.90;42.60;;;;;;11139065;26;20259;-73
2024/04/18 02:48:56;;;;;;;5.67;5.17;;;8.00;42.90;;;;;;11146647;26;20255;-73
2024/04/18 02:54:01;;;;;;;6.23;5.73;;;8.10;42.50;;;;;;11129040;26;20799;-73
2024/04/18 02:59:10;;;;;;;6.57;6.07;;;8.00;42.30;;;;;;11150801;26;20262;-73
2024/04/18 03:04:15;;;;;;;6.30;5.80;;;8.00;42.80;;;;;;11146403;26;20333;-73
2024/04/18 03:09:20;;;;;;;6.17;5.67;;;8.00;42.50;;;;;;11152446;26;20275;-73
2024/04/18 03:14:28;;;;;;;6.53;5.93;;;8.00;42.60;;;;;;11140257;26;20261;-73
2024/04/18 03:19:33;;;;;;;6.03;5.47;;;8.00;43.00;;;;;;11137749;26;20260;-73
2024/04/18 03:24:42;;;;;;;6.53;5.97;;;8.10;42.70;;;;;;11151274;26;20269;-73
2024/04/18 03:29:49;;;;;;;5.77;5.33;;;8.10;42.50;;;;;;11147531;26;20262;-73
2024/04/18 03:34:54;;;;;;;5.60;5.10;;;8.10;42.80;;;;;;11142238;26;20779;-73
2024/04/18 03:39:59;;;;;;;6.60;6.00;;;8.10;42.70;;;;;;11157170;26;20732;-73
2024/04/18 03:45:08;;;;;;;5.27;4.87;;;8.10;43.40;;;;;;11151932;26;21420;-73
2024/04/18 03:50:12;;;;;;;6.30;5.77;;;8.10;43.20;;;;;;11161157;26;20305;-73
2024/04/18 03:55:18;;;;;;;5.37;4.97;;;8.10;42.70;;;;;;11140256;26;20360;-73
2024/04/18 04:00:25;;;;;;;6.03;5.53;;;8.10;42.80;;;;;;11157182;26;21216;-73
2024/04/18 04:05:30;;;;;;;6.67;5.27;;;8.20;43.20;;;;;;11142474;26;20254;-73
2024/04/18 04:10:35;;;;;;;5.83;5.33;;;8.20;42.70;;;;;;11153973;26;20263;-73
2024/04/18 04:15:43;;;;;;;6.17;5.67;;;8.30;42.50;;;;;;11156272;26;20677;-73
2024/04/18 04:20:48;;;;;;;6.07;5.57;;;8.30;42.80;;;;;;11169981;26;20769;-73
2024/04/18 04:25:53;;;;;;;5.73;5.23;;;8.30;42.50;;;;;;11148714;26;20756;-73
2024/04/18 04:31:01;;;;;;;5.57;5.17;;;8.30;42.50;;;;;;11156259;26;20251;-73
2024/04/18 04:36:06;;;;;;;6.00;5.50;;;8.30;42.90;;;;;;11148121;26;20259;-73
2024/04/18 04:41:11;;;;;;;5.83;5.33;;;8.30;42.50;;;;;;11174326;26;20255;-73
2024/04/18 04:46:19;;;;;;;5.93;5.43;;;8.30;42.50;;;;;;11158455;26;20255;-73
2024/04/18 04:51:24;;;;;;;5.77;5.27;;;8.30;43.00;;;;;;11150458;26;20327;-73
2024/04/18 04:56:29;;;;;;;5.57;5.13;;;8.30;42.60;;;;;;11170957;26;20323;-73
2024/04/18 05:01:36;;;;;;;5.30;4.83;;;8.30;42.70;;;;;;11148717;26;20267;-73
2024/04/18 05:06:42;;;;;;;5.93;5.43;;;8.40;43.20;;;;;;11168432;26;20308;-73
2024/04/18 05:11:47;;;;;;;5.97;5.47;;;8.40;42.80;;;;;;11158958;26;20754;-73
2024/04/18 05:16:55;;;;;;;5.50;5.03;;;8.40;42.80;;;;;;11157680;26;20261;-73
2024/04/18 05:22:00;;;;;;;6.10;5.60;;;8.50;43.40;;;;;;11162264;26;21373;-76
2024/04/18 05:27:05;;;;;;;5.93;5.43;;;8.50;43.00;;;;;;11177406;26;20305;-72
2024/04/18 05:32:13;;;;;;;5.63;5.13;;;8.60;43.70;;;;;;11170350;26;20310;-73
2024/04/18 05:37:18;;;;;;;6.23;5.67;;;8.70;43.70;;;;;;11151215;26;20349;-72
2024/04/18 05:42:27;;;;;;;6.30;5.80;;;8.70;43.00;;;;;;11152257;26;21130;-73
2024/04/18 05:47:34;;;;;;;6.13;5.63;;;8.80;42.90;;;;;;11155325;26;20362;-73
2024/04/18 05:52:39;;;;;;;5.90;5.40;;;8.80;42.90;;;;;;11157259;26;20259;-72
2024/04/18 05:57:44;;;;;;;6.50;6.00;;;8.70;42.60;;;;;;11162482;26;20301;-73
2024/04/18 06:02:52;;;;;;;6.63;6.07;;;8.70;42.80;;;;;;11158757;26;20254;-73
2024/04/18 06:07:57;;;;;;;6.27;5.70;;;8.60;43.00;;;;;;11161404;26;20775;-73
2024/04/18 06:13:03;;;;;;;5.90;5.40;;;8.60;43.00;;;;;;11157120;26;20298;-73
2024/04/18 06:18:11;;;;;;;5.70;5.20;;;8.50;42.90;;;;;;11156755;26;20297;-73
2024/04/18 06:23:16;;;;;;;5.50;4.83;;;8.50;43.20;;;;;;11151613;26;20262;-73
2024/04/18 06:28:21;;;;;;;5.80;4.93;;;8.40;42.70;;;;;;11162293;26;20254;-73
2024/04/18 06:33:29;;;;;;;5.27;4.83;;;8.40;42.80;;;;;;11152038;26;20262;-72
2024/04/18 06:38:36;;;;;;;5.67;5.10;;;8.30;42.90;;;;;;11153149;26;20355;-72
2024/04/18 06:43:41;;;;;;;5.10;4.70;;;8.30;42.70;;;;;;11148621;26;21059;-72
2024/04/18 06:48:49;;;;;;;5.60;5.10;;;8.20;42.80;;;;;;11157370;26;20309;-73
2024/04/18 06:53:54;;;;;;;5.07;4.67;;;8.20;43.20;;;;;;11151964;26;20294;-73
2024/04/18 06:58:59;;;;;;;5.60;5.10;;;8.30;43.10;;;;;;11152690;26;20288;-73
2024/04/18 07:04:07;;;;;;;5.13;4.67;;;8.30;43.30;;;;;;11158523;26;20263;-73
2024/04/18 07:09:12;;;;;;;5.27;4.87;;;8.30;43.70;;;;;;11160623;26;20246;-72
2024/04/18 07:14:17;;;;;;;5.70;5.20;;;8.40;43.40;;;;;;11144839;26;20294;-73
2024/04/18 07:19:24;;;;;;;5.50;5.03;;;8.40;43.40;;;;;;11167603;26;21441;-73
2024/04/18 07:24:29;;;;;;;5.33;4.93;;;8.40;43.80;;;;;;11165937;26;20314;-73
2024/04/18 07:29:34;;;;;;;5.33;4.83;;;8.50;43.50;;;;;;11156931;26;20266;-73
2024/04/18 07:34:42;;;;;;;27.07;6.53;;;8.50;43.60;;;;;;11154295;26;20261;-73
2024/04/18 07:39:47;;;;;;;6.47;5.33;;;8.60;44.10;;;;;;11157700;26;20262;-72
2024/04/18 07:44:52;;;;;;;7.23;5.10;;;8.60;43.60;;;;;;11170774;26;20255;-73
2024/04/18 07:50:00;;;;;;;5.30;4.80;;;8.70;43.70;;;;;;11150866;26;21073;-73
2024/04/18 07:55:05;;;;;;;5.40;4.90;;;8.70;43.50;;;;;;11117169;26;20356;-73
2024/04/18 08:00:11;;;;;;;5.30;4.90;;;8.80;43.40;;;;;;11158365;26;20349;-72
2024/04/18 08:05:19;;;;;;;5.60;5.20;;;8.90;43.40;;;;;;11144622;26;20366;-72
2024/04/18 08:10:28;;;;;;;5.63;5.20;;;9.00;43.60;;;;;;11153275;26;20633;-73
2024/04/18 08:15:49;;;;;;;6.07;5.53;;;9.00;43.30;;;;;;11152647;26;20292;-72
2024/04/18 08:21:00;;;;;;;5.87;5.37;;;9.00;43.20;;;;;;11140356;26;20945;-73
2024/04/18 08:26:06;;;;;;;5.50;5.10;;;9.10;43.20;;;;;;11149586;26;20368;-72
2024/04/18 08:31:11;;;;;;;5.17;4.77;;;9.10;43.00;;;;;;11148745;26;20745;-73
2024/04/18 08:36:19;;;;;;;5.10;4.70;;;9.10;42.90;;;;;;11147055;26;20686;-72
2024/04/18 08:41:24;;;;;;;5.07;4.67;;;9.10;43.30;;;;;;11142022;26;20754;-73
2024/04/18 08:46:29;;;;;;;4.77;4.23;;;9.10;42.80;;;;;;11152111;26;20297;-73
2024/04/18 08:51:38;;;;;;;3.60;3.33;;;9.10;42.60;;;;;;11153640;26;20258;-72
2024/04/18 08:56:50;;;;;;;3.80;3.50;;;9.20;42.80;;;;;;11154942;26;20468;-72
2024/04/18 09:01:56;;;;;;;4.43;4.03;;;9.20;42.90;;;;;;11159905;26;21154;-72
2024/04/18 09:07:04;;;;;;;3.77;3.47;;;9.20;42.30;;;;;;11161069;26;20314;-72
2024/04/18 09:12:10;;;;;;;3.80;3.50;;;9.20;42.50;;;;;;11156057;26;20281;-72
2024/04/18 09:17:15;;;;;;;3.90;3.60;;;9.30;42.40;;;;;;11165538;26;20266;-72
2024/04/18 09:22:23;;;;;;;3.93;3.63;;;9.30;42.30;;;;;;11159418;26;20294;-72
2024/04/18 09:27:28;;;;;;;4.10;3.77;;;9.30;42.60;;;;;;11149447;26;20282;-72
2024/04/18 09:32:34;;;;;;;4.47;4.10;;;9.40;42.70;;;;;;11161785;26;20376;-71
2024/04/18 09:37:43;;;;;;;4.47;3.80;;;9.50;42.60;;;;;;11163365;26;20756;-72
2024/04/18 09:43:09;;;;;;;4.40;4.10;;;9.60;43.00;;;;;;11160462;26;20744;-72
2024/04/18 09:48:15;;;;;;;4.63;4.23;;;9.70;42.60;;;;;;11158741;26;20258;-72
2024/04/18 09:53:24;;;;;;;4.53;4.17;;;9.80;42.80;;;;;;11155934;26;20306;-73
2024/04/18 09:58:29;;;;;;;4.20;3.90;;;9.80;43.20;;;;;;11166968;26;20300;-73
2024/04/18 10:03:35;;;;;;;3.40;3.20;;;9.80;42.60;;;;;;11164199;26;20293;-73
2024/04/18 10:08:46;;;;;;;3.10;2.90;;;9.70;42.20;;;;;;11133747;26;20306;-73
2024/04/18 10:13:51;;;;;;;2.10;2.00;;;9.70;42.60;;;;;;11134518;26;21127;-73
2024/04/18 10:18:56;;;;;;;2.60;2.40;;;9.70;42.50;;;;;;11155976;26;20264;-73
2024/04/18 10:24:07;;;;;;;2.50;2.30;;;9.80;42.60;;;;;;11141145;26;20350;-73
2024/04/18 10:29:26;;;;;;;3.20;2.90;;;9.90;42.60;;;;;;11146219;26;20744;-73
2024/04/18 10:34:32;;;;;;;3.30;3.10;;;10.10;41.80;;;;;;11145728;26;20258;-73
2024/04/18 10:39:44;;;;;;;4.73;3.20;;;10.30;42.30;;;;;;11142977;26;20342;-73
2024/04/18 10:44:49;;;;;;;3.63;2.77;;;10.50;41.50;;;;;;11124943;26;20255;-73
2024/04/18 10:49:54;;;;;;;3.03;2.83;;;10.70;42.20;;;;;;11125664;26;20855;-73
2024/04/18 10:55:02;;;;;;;2.70;2.47;;;10.80;40.60;;;;;;11147806;26;20260;-73
2024/04/18 11:00:09;;;;;;;2.43;2.23;;;10.90;39.40;;;;;;11112191;26;20302;-73
2024/04/18 11:05:14;;;;;;;2.80;2.60;;;11.00;40.80;;;;;;11130832;26;20266;-72
2024/04/18 11:10:24;;;;;;;3.37;2.70;;;11.20;40.20;;;;;;11133482;26;20259;-73
2024/04/18 11:15:30;;;;;;;3.00;2.80;;;11.30;39.70;;;;;;11145796;26;21133;-72
2024/04/18 11:20:36;;;;;;;2.70;2.50;;;11.40;40.30;;;;;;11137697;26;20251;-72
2024/04/18 11:25:44;;;;;;;2.60;2.43;;;11.40;39.60;;;;;;11150947;26;20300;-72
2024/04/18 11:30:49;;;;;;;3.30;2.30;;;11.40;39.10;;;;;;11125748;26;20313;-72
2024/04/18 11:35:55;;;;;;;2.30;2.10;;;11.50;39.20;;;;;;11121606;26;21174;-72
2024/04/18 11:41:03;;;;;;;3.23;2.00;;;11.50;38.80;;;;;;11134004;26;20295;-72
2024/04/18 11:46:08;;;;;;;3.00;2.23;;;11.60;39.00;;;;;;11120996;26;21076;-72
2024/04/18 11:51:14;;;;;;;2.23;2.03;;;11.80;38.60;;;;;;11104655;26;20360;-72
2024/04/18 11:56:21;;;;;;;2.10;1.90;;;12.10;38.50;;;;;;11128835;26;20262;-72
2024/04/18 12:01:27;;;;;;;1.83;1.73;;;12.20;38.00;;;;;;11132306;26;20296;-72
2024/04/18 12:06:32;;;;;;;2.37;2.17;;;12.40;39.40;;;;;;11135504;26;20256;-72
2024/04/18 12:11:40;;;;;;;2.00;1.90;;;12.60;38.50;;;;;;11142365;26;20675;-72
2024/04/18 12:16:45;;;;;;;2.80;2.17;;;12.80;38.00;;;;;;11157249;26;20366;-73
2024/04/18 12:21:50;;;;;;;3.77;2.40;;;12.90;38.40;;;;;;11154776;26;20602;-73
2024/04/18 12:26:58;;;;;;;2.10;2.00;;;12.90;37.80;;;;;;11159543;26;20263;-73
2024/04/18 12:32:04;;;;;;;2.43;2.23;;;12.90;38.20;;;;;;11150179;26;20328;-73
2024/04/18 12:37:09;;;;;;;3.10;2.00;;;12.90;37.50;;;;;;11147016;26;20267;-73
2024/04/18 12:42:18;;;;;;;2.87;2.67;;;12.90;37.80;;;;;;11144454;26;20305;-73
2024/04/18 12:47:23;;;;;;;2.80;2.60;;;12.80;37.60;;;;;;11129542;26;20307;-73
2024/04/18 12:52:28;;;;;;;2.67;2.47;;;12.80;37.90;;;;;;11129113;26;20254;-73
2024/04/18 12:57:36;;;;;;;2.80;2.60;;;12.60;38.00;;;;;;11155006;26;20256;-73
2024/04/18 13:02:41;;;;;;;2.60;2.40;;;12.60;37.40;;;;;;11157017;26;21231;-73
2024/04/18 13:07:46;;;;;;;2.70;2.50;;;12.50;37.90;;;;;;11160494;26;21144;-73
2024/04/18 13:12:54;;;;;;;2.83;2.63;;;12.40;38.00;;;;;;11152723;26;20257;-73
2024/04/18 13:17:58;;;;;;;2.97;2.60;;;12.40;37.30;;;;;;11162407;26;20260;-73
2024/04/18 13:23:03;;;;;;;2.90;2.53;;;12.30;37.60;;;;;;11155172;26;20286;-73
2024/04/18 13:28:11;;;;;;;2.70;2.50;;;12.30;37.80;;;;;;11168586;26;20746;-73
2024/04/18 13:33:16;;;;;;;3.20;2.40;;;12.20;37.60;;;;;;11165953;26;20293;-73
2024/04/18 13:38:22;;;;;;;2.47;2.27;;;12.20;38.00;;;;;;11169973;26;20267;-73
2024/04/18 13:43:29;;;;;;;2.60;2.40;;;12.20;38.10;;;;;;11164167;26;20251;-73
2024/04/18 13:48:36;;;;;;;2.57;2.37;;;12.10;37.50;;;;;;11159112;26;20309;-72
2024/04/18 13:53:43;;;;;;;2.50;2.30;;;12.10;38.00;;;;;;11158590;26;20297;-72
2024/04/18 13:58:50;;;;;;;2.70;2.50;;;12.10;38.10;;;;;;11160171;26;20296;-73
2024/04/18 14:03:55;;;;;;;1.90;1.80;;;12.00;37.80;;;;;;11147514;26;20254;-72
2024/04/18 14:09:00;;;;;;;2.03;1.83;;;12.00;37.90;;;;;;11167003;26;20306;-72
2024/04/18 14:14:09;;;;;;;1.70;1.60;;;12.00;37.80;;;;;;11152890;26;20726;-72
2024/04/18 14:19:16;;;;;;;1.80;1.70;;;11.90;37.20;;;;;;11148403;26;20255;-72
2024/04/18 14:24:21;;;;;;;1.73;1.60;;;11.90;37.60;;;;;;11154480;26;20309;-72
2024/04/18 14:29:30;;;;;;;1.53;1.43;;;11.90;37.70;;;;;;11154720;26;20271;-72
2024/04/18 14:34:35;;;;;;;1.57;1.47;;;11.90;37.20;;;;;;11152012;26;20786;-72
2024/04/18 14:39:40;;;;;;;2.93;1.60;;;11.90;37.40;;;;;;11157923;26;20261;-72
2024/04/18 14:44:48;;;;;;;1.70;1.60;;;11.90;37.90;;;;;;11136421;26;20372;-72
2024/04/18 14:49:54;;;;;;;1.40;1.30;;;12.00;37.50;;;;;;11131143;26;22081;-72
2024/04/18 14:55:07;;;;;;;1.50;1.40;;;12.00;38.00;;;;;;11138648;26;20283;-72
2024/04/18 15:00:14;;;;;;;1.90;1.80;;;12.10;37.50;;;;;;11148451;26;20255;-72
2024/04/18 15:05:20;;;;;;;2.53;1.90;;;12.00;36.30;;;;;;11123997;26;20362;-72
2024/04/18 15:10:26;;;;;;;2.80;2.60;;;11.90;36.80;;;;;;11129326;26;20254;-75
2024/04/18 15:15:33;;;;;;;2.33;1.93;;;11.80;36.90;;;;;;11134968;26;20258;-73
2024/04/18 15:20:38;;;;;;;1.60;1.50;;;11.70;38.00;;;;;;11133053;26;20266;-72
2024/04/18 15:25:43;;;;;;;1.30;1.20;;;11.70;37.00;;;;;;11111524;26;20255;-72
2024/04/18 15:30:51;;;;;;;2.10;1.30;;;11.60;37.20;;;;;;11132679;26;20792;-72
2024/04/18 15:35:56;;;;;;;1.13;1.07;;;11.50;37.90;;;;;;11137374;26;20643;-75
2024/04/18 15:41:01;;;;;;;1.60;1.50;;;11.50;37.70;;;;;;11137161;26;20305;-72
2024/04/18 15:46:09;;;;;;;1.83;1.73;;;11.50;38.00;;;;;;11145436;26;20351;-76
2024/04/18 15:51:14;;;;;;;2.33;2.00;;;11.60;39.30;;;;;;11137212;26;21042;-72
2024/04/18 15:56:21;;;;;;;1.73;1.63;;;11.70;38.60;;;;;;11148856;26;20654;-72
2024/04/18 16:01:29;;;;;;;1.60;1.50;;;11.80;38.70;;;;;;11154237;26;20263;-72
2024/04/18 16:06:34;;;;;;;1.27;1.27;;;11.90;38.00;;;;;;11147970;26;21579;-72
2024/04/18 16:11:39;;;;;;;1.57;1.40;;;12.00;38.10;;;;;;11155695;26;20325;-71
2024/04/18 16:16:47;;;;;;;1.30;1.30;;;12.10;37.90;;;;;;11157869;26;20325;-72
2024/04/18 16:21:52;;;;;;;0.90;0.90;;;12.10;37.00;;;;;;11154938;26;21116;-71
2024/04/18 16:26:57;;;;;;;1.40;1.30;;;12.10;37.10;;;;;;11147235;26;20256;-72
2024/04/18 16:32:04;;;;;;;1.50;1.40;;;12.10;37.30;;;;;;11141949;26;20321;-71
2024/04/18 16:37:09;;;;;;;1.30;1.20;;;12.10;36.80;;;;;;11150051;26;20255;-72
2024/04/18 16:42:19;;;;;;;1.20;1.10;;;12.10;37.10;;;;;;11145820;26;20276;-72
2024/04/18 16:47:27;;;;;;;1.33;1.27;;;12.10;37.20;;;;;;11150112;26;20301;-71
2024/04/18 16:52:32;;;;;;;1.87;1.47;;;12.20;37.20;;;;;;11148209;26;20259;-72
2024/04/18 16:57:37;;;;;;;1.50;1.40;;;12.30;37.50;;;;;;11154637;26;20761;-72
2024/04/18 17:02:45;;;;;;;1.80;1.70;;;12.30;37.10;;;;;;11147776;26;20303;-71
2024/04/18 17:07:51;;;;;;;2.00;1.80;;;12.40;36.70;;;;;;11150774;26;20644;-71
2024/04/18 17:12:56;;;;;;;2.33;2.13;;;12.40;37.10;;;;;;11147485;26;20262;-71
2024/04/18 17:18:04;;;;;;;2.40;2.20;;;12.20;37.00;;;;;;11159126;26;20255;-72
2024/04/18 17:23:09;;;;;;;2.30;2.00;;;12.20;37.20;;;;;;11118511;26;20382;-71
2024/04/18 17:28:14;;;;;;;2.00;1.90;;;12.10;36.70;;;;;;11157366;26;20981;-72
2024/04/18 17:33:22;;;;;;;2.80;2.60;;;12.00;36.80;;;;;;11150032;26;20305;-71
2024/04/18 17:38:27;;;;;;;2.50;2.30;;;11.90;36.90;;;;;;11146924;26;20648;-71
2024/04/18 17:43:32;;;;;;;2.20;2.07;;;11.80;37.10;;;;;;11144798;26;20260;-71
2024/04/18 17:48:40;;;;;;;2.50;2.30;;;11.70;37.40;;;;;;11147349;26;20262;-71
2024/04/18 17:53:45;;;;;;;3.93;2.40;;;11.70;37.60;;;;;;11146558;26;20308;-72
2024/04/18 17:58:50;;;;;;;2.80;2.60;;;11.60;37.60;;;;;;11150832;26;20259;-72
2024/04/18 18:03:58;;;;;;;2.93;2.73;;;11.50;37.60;;;;;;11146254;26;20254;-72
2024/04/18 18:09:03;;;;;;;2.90;2.63;;;11.40;37.80;;;;;;11151033;26;20266;-72
2024/04/18 18:14:08;;;;;;;2.87;2.67;;;11.30;38.00;;;;;;11147043;26;20296;-72
2024/04/18 18:19:15;;;;;;;2.60;2.40;;;11.20;37.90;;;;;;11148041;26;20442;-72
2024/04/18 18:24:21;;;;;;;2.40;2.20;;;11.00;38.10;;;;;;11145330;26;20262;-72
2024/04/18 18:29:26;;;;;;;2.13;2.03;;;10.80;38.20;;;;;;11139167;26;20384;-72
2024/04/18 18:34:35;;;;;;;2.40;2.20;;;10.60;38.30;;;;;;11129845;26;20776;-72
2024/04/18 18:39:40;;;;;;;2.03;1.90;;;10.40;38.90;;;;;;11141349;26;20656;-72
2024/04/18 18:44:45;;;;;;;1.80;1.70;;;10.20;38.60;;;;;;11135431;26;20258;-72
2024/04/18 18:49:53;;;;;;;2.10;2.00;;;10.10;38.50;;;;;;11146978;26;20259;-72
2024/04/18 18:54:58;;;;;;;2.50;2.30;;;10.10;38.10;;;;;;11155824;26;20313;-72
2024/04/18 19:00:03;;;;;;;1.93;1.80;;;10.00;38.20;;;;;;11151647;26;20296;-73
2024/04/18 19:05:11;;;;;;;1.80;1.70;;;10.00;38.10;;;;;;11131540;26;20314;-72
2024/04/18 19:10:17;;;;;;;2.83;2.63;;;10.00;38.20;;;;;;11142893;26;20301;-72
2024/04/18 19:15:22;;;;;;;3.27;1.97;;;10.00;38.00;;;;;;11148073;26;20369;-73
2024/04/18 19:20:30;;;;;;;2.87;2.67;;;9.90;39.00;;;;;;11158081;26;20256;-73
2024/04/18 19:25:37;;;;;;;2.50;2.30;;;9.90;39.00;;;;;;11154751;26;20301;-73
2024/04/18 19:30:45;;;;;;;2.73;2.47;;;10.00;38.10;;;;;;11154429;26;20261;-73
2024/04/18 19:35:53;;;;;;;2.30;2.20;;;10.00;37.90;;;;;;11148618;26;20304;-73
2024/04/18 19:40:58;;;;;;;2.70;2.50;;;10.00;37.70;;;;;;11161599;26;20250;-72
2024/04/18 19:46:04;;;;;;;8.20;7.50;;;9.90;38.30;;;;;;11148627;26;20891;-72
2024/04/18 19:51:12;;;;;;;5.43;4.93;;;9.80;38.30;;;;;;11141463;26;20254;-72
2024/04/18 19:56:17;;;;;;;5.07;4.53;;;9.60;38.50;;;;;;11148134;26;20937;-72
2024/04/18 20:01:22;;;;;;;3.77;3.57;;;9.50;38.70;;;;;;11143102;26;20297;-72
2024/04/18 20:06:29;;;;;;;2.87;2.67;;;9.40;38.90;;;;;;11139099;26;20418;-73
2024/04/18 20:11:35;;;;;;;2.00;1.90;;;9.50;39.10;;;;;;11151202;26;20251;-72
2024/04/18 20:16:44;;;;;;;1.97;1.87;;;9.50;38.90;;;;;;11144725;26;20273;-72
2024/04/18 20:21:51;;;;;;;1.60;1.50;;;9.50;38.70;;;;;;11141827;26;20326;-72
2024/04/18 20:26:57;;;;;;;1.80;1.70;;;9.50;38.70;;;;;;11137877;26;20309;-72
2024/04/18 20:32:02;;;;;;;1.80;1.70;;;9.60;38.80;;;;;;11113961;26;20260;-72
2024/04/18 20:37:10;;;;;;;2.57;2.33;;;9.50;38.50;;;;;;11144644;26;20393;-73
2024/04/18 20:42:15;;;;;;;2.60;2.03;;;9.40;38.50;;;;;;11142155;26;20295;-72
2024/04/18 20:47:21;;;;;;;1.57;1.47;;;9.40;38.60;;;;;;11152046;26;20326;-72
2024/04/18 20:52:28;;;;;;;1.80;1.70;;;9.40;38.50;;;;;;11140259;26;20264;-72
2024/04/18 20:57:33;;;;;;;2.83;2.57;;;9.30;38.70;;;;;;11151829;26;20259;-72
2024/04/18 21:02:38;;;;;;;2.53;2.30;;;9.30;38.70;;;;;;11145936;26;20263;-72
2024/04/18 21:07:46;;;;;;;2.20;2.10;;;9.20;38.60;;;;;;11136436;26;20329;-72
2024/04/18 21:12:51;;;;;;;2.07;1.97;;;9.00;38.80;;;;;;11148251;26;20874;-72
2024/04/18 21:17:56;;;;;;;2.10;1.90;;;8.80;39.00;;;;;;11134714;26;20248;-72
2024/04/18 21:23:04;;;;;;;2.30;2.20;;;8.60;39.50;;;;;;11143049;26;20259;-72
2024/04/18 21:28:09;;;;;;;2.73;2.53;;;8.40;39.50;;;;;;11139058;26;20645;-72
2024/04/18 21:33:14;;;;;;;2.60;2.40;;;8.30;39.50;;;;;;11143005;26;20367;-72
2024/04/18 21:38:23;;;;;;;2.87;2.67;;;8.20;39.40;;;;;;11136874;26;20309;-72
2024/04/18 21:43:28;;;;;;;3.17;2.87;;;8.20;39.90;;;;;;11140833;26;20301;-72
2024/04/18 21:48:33;;;;;;;3.37;3.10;;;8.10;39.30;;;;;;11144868;26;20254;-72
2024/04/18 21:53:41;;;;;;;3.80;3.50;;;8.00;39.70;;;;;;11149804;26;20630;-72
2024/04/18 21:58:46;;;;;;;3.90;3.60;;;8.00;40.10;;;;;;11124280;26;20656;-72
2024/04/18 22:03:52;;;;;;;4.00;3.13;;;8.00;39.80;;;;;;11149202;26;20337;-72
2024/04/18 22:09:00;;;;;;;3.40;3.17;;;7.90;40.00;;;;;;11147972;26;20669;-72
2024/04/18 22:14:04;;;;;;;3.40;3.13;;;7.80;40.40;;;;;;11145344;26;20772;-72
2024/04/18 22:19:10;;;;;;;3.20;3.00;;;7.90;40.10;;;;;;11140309;26;20260;-72
2024/04/18 22:24:18;;;;;;;3.07;2.87;;;7.90;40.60;;;;;;11148648;26;20258;-72
2024/04/18 22:29:23;;;;;;;3.37;3.17;;;8.00;40.80;;;;;;11143325;26;20266;-72
2024/04/18 22:34:30;;;;;;;3.53;3.17;;;8.00;40.20;;;;;;11143744;26;20708;-72
2024/04/18 22:39:43;;;;;;;3.50;3.20;;;8.10;40.40;;;;;;11143828;26;20313;-72
2024/04/18 22:44:48;;;;;;;4.00;3.17;;;8.10;40.60;;;;;;11139876;26;20795;-72
2024/04/18 22:49:55;;;;;;;3.67;3.37;;;8.10;40.40;;;;;;11153419;26;20258;-72
2024/04/18 22:55:02;;;;;;;4.13;3.73;;;8.10;40.50;;;;;;11146375;26;20298;-72
2024/04/18 23:00:09;;;;;;;3.87;3.50;;;8.00;40.90;;;;;;11142905;26;20289;-72
2024/04/18 23:05:14;;;;;;;3.77;3.50;;;8.00;40.80;;;;;;11144025;26;20668;-72
2024/04/18 23:10:21;;;;;;;3.53;3.23;;;8.00;40.90;;;;;;11155761;26;20756;-72
2024/04/18 23:15:28;;;;;;;3.47;3.17;;;8.00;41.40;;;;;;11153650;26;20259;-72
2024/04/18 23:20:33;;;;;;;3.83;3.53;;;8.00;41.20;;;;;;11165127;26;21021;-72
2024/04/18 23:25:42;;;;;;;4.63;4.23;;;8.00;41.30;;;;;;11156735;26;20302;-72
2024/04/18 23:30:46;;;;;;;3.90;3.60;;;8.00;41.90;;;;;;11142102;26;20298;-72
2024/04/18 23:35:51;;;;;;;3.83;3.53;;;8.10;41.70;;;;;;11162004;26;20387;-72
2024/04/18 23:40:59;;;;;;;3.67;3.37;;;8.10;41.60;;;;;;11149565;26;20260;-72
2024/04/18 23:46:04;;;;;;;3.40;3.20;;;8.20;42.10;;;;;;11140864;26;20309;-72
2024/04/18 23:51:09;;;;;;;3.77;3.47;;;8.20;41.60;;;;;;11161111;26;20305;-72
2024/04/18 23:56:18;;;;;;;3.67;3.40;;;8.20;41.50;;;;;;11138509;26;20301;-72
